sensor_id;sensor_type;location;lat;lon;timestamp;P1;durP1;ratioP1;P2;durP2;ratioP2
41685;SDS011;27370;42.764;23.432;2022-07-17T00:02:26;8.85;;;4.82;;
41685;SDS011;27370;42.764;23.432;2022-07-17T00:04:51;9.27;;;4.95;;
41685;SDS011;27370;42.764;23.432;2022-07-17T00:07:17;7.63;;;5.10;;
41685;SDS011;27370;42.764;23.432;2022-07-17T00:09:43;10.07;;;5.32;;
41685;SDS011;27370;42.764;23.432;2022-07-17T00:12:08;9.20;;;5.07;;
41685;SDS011;27370;42.764;23.432;2022-07-17T00:14:34;9.95;;;5.15;;
41685;SDS011;27370;42.764;23.432;2022-07-17T00:17:00;9.13;;;5.57;;
41685;SDS011;27370;42.764;23.432;2022-07-17T00:19:26;9.00;;;4.95;;
41685;SDS011;27370;42.764;23.432;2022-07-17T00:21:51;8.73;;;4.97;;
41685;SDS011;27370;42.764;23.432;2022-07-17T00:24:17;9.73;;;5.47;;
41685;SDS011;27370;42.764;23.432;2022-07-17T00:26:48;9.27;;;4.88;;
41685;SDS011;27370;42.764;23.432;2022-07-17T00:29:15;9.80;;;5.30;;
41685;SDS011;27370;42.764;23.432;2022-07-17T00:31:41;9.48;;;4.80;;
41685;SDS011;27370;42.764;23.432;2022-07-17T00:34:07;11.43;;;5.25;;
41685;SDS011;27370;42.764;23.432;2022-07-17T00:36:33;9.20;;;5.18;;
41685;SDS011;27370;42.764;23.432;2022-07-17T00:38:58;9.20;;;5.20;;
41685;SDS011;27370;42.764;23.432;2022-07-17T00:41:24;8.32;;;4.68;;
41685;SDS011;27370;42.764;23.432;2022-07-17T00:43:49;9.00;;;5.22;;
41685;SDS011;27370;42.764;23.432;2022-07-17T00:46:15;9.02;;;5.03;;
41685;SDS011;27370;42.764;23.432;2022-07-17T00:48:41;8.55;;;5.13;;
41685;SDS011;27370;42.764;23.432;2022-07-17T00:51:06;10.35;;;4.88;;
41685;SDS011;27370;42.764;23.432;2022-07-17T00:53:33;11.27;;;4.93;;
41685;SDS011;27370;42.764;23.432;2022-07-17T00:56:03;14.85;;;6.28;;
41685;SDS011;27370;42.764;23.432;2022-07-17T00:58:30;10.02;;;4.43;;
41685;SDS011;27370;42.764;23.432;2022-07-17T01:03:25;8.85;;;4.93;;
41685;SDS011;27370;42.764;23.432;2022-07-17T01:05:51;9.93;;;4.90;;
41685;SDS011;27370;42.764;23.432;2022-07-17T01:08:17;10.38;;;4.90;;
41685;SDS011;27370;42.764;23.432;2022-07-17T01:10:43;7.45;;;4.47;;
41685;SDS011;27370;42.764;23.432;2022-07-17T01:13:09;9.55;;;4.97;;
41685;SDS011;27370;42.764;23.432;2022-07-17T01:15:38;9.38;;;5.00;;
41685;SDS011;27370;42.764;23.432;2022-07-17T01:18:09;10.15;;;4.90;;
41685;SDS011;27370;42.764;23.432;2022-07-17T01:20:36;7.85;;;4.90;;
41685;SDS011;27370;42.764;23.432;2022-07-17T01:23:04;9.13;;;4.90;;
41685;SDS011;27370;42.764;23.432;2022-07-17T01:25:30;9.90;;;5.15;;
41685;SDS011;27370;42.764;23.432;2022-07-17T01:27:55;8.88;;;5.30;;
41685;SDS011;27370;42.764;23.432;2022-07-17T01:30:21;9.95;;;5.30;;
41685;SDS011;27370;42.764;23.432;2022-07-17T01:32:46;9.05;;;5.38;;
41685;SDS011;27370;42.764;23.432;2022-07-17T01:35:13;8.40;;;5.00;;
41685;SDS011;27370;42.764;23.432;2022-07-17T01:37:40;9.65;;;5.40;;
41685;SDS011;27370;42.764;23.432;2022-07-17T01:40:07;9.43;;;5.32;;
41685;SDS011;27370;42.764;23.432;2022-07-17T01:42:35;10.20;;;5.43;;
41685;SDS011;27370;42.764;23.432;2022-07-17T01:45:01;9.23;;;5.28;;
41685;SDS011;27370;42.764;23.432;2022-07-17T01:47:26;10.57;;;5.45;;
41685;SDS011;27370;42.764;23.432;2022-07-17T01:49:52;9.63;;;5.47;;
41685;SDS011;27370;42.764;23.432;2022-07-17T01:52:20;9.43;;;5.43;;
41685;SDS011;27370;42.764;23.432;2022-07-17T01:54:47;8.27;;;4.90;;
41685;SDS011;27370;42.764;23.432;2022-07-17T01:57:13;10.20;;;5.22;;
41685;SDS011;27370;42.764;23.432;2022-07-17T01:59:39;9.30;;;5.15;;
41685;SDS011;27370;42.764;23.432;2022-07-17T02:02:06;10.05;;;5.32;;
41685;SDS011;27370;42.764;23.432;2022-07-17T02:04:33;10.93;;;5.60;;
41685;SDS011;27370;42.764;23.432;2022-07-17T02:06:59;9.70;;;5.18;;
41685;SDS011;27370;42.764;23.432;2022-07-17T02:09:25;8.93;;;5.78;;
41685;SDS011;27370;42.764;23.432;2022-07-17T02:11:51;9.38;;;5.43;;
41685;SDS011;27370;42.764;23.432;2022-07-17T02:14:16;11.50;;;5.28;;
41685;SDS011;27370;42.764;23.432;2022-07-17T02:16:42;8.40;;;5.25;;
41685;SDS011;27370;42.764;23.432;2022-07-17T02:19:08;9.18;;;5.55;;
41685;SDS011;27370;42.764;23.432;2022-07-17T02:21:33;8.60;;;4.95;;
41685;SDS011;27370;42.764;23.432;2022-07-17T02:23:59;9.07;;;5.50;;
41685;SDS011;27370;42.764;23.432;2022-07-17T02:26:25;9.18;;;5.40;;
41685;SDS011;27370;42.764;23.432;2022-07-17T02:28:50;8.60;;;5.38;;
41685;SDS011;27370;42.764;23.432;2022-07-17T02:31:16;10.75;;;5.68;;
41685;SDS011;27370;42.764;23.432;2022-07-17T02:33:41;12.40;;;5.72;;
41685;SDS011;27370;42.764;23.432;2022-07-17T02:36:07;10.55;;;5.18;;
41685;SDS011;27370;42.764;23.432;2022-07-17T02:38:32;9.35;;;4.80;;
41685;SDS011;27370;42.764;23.432;2022-07-17T02:40:58;8.88;;;4.80;;
41685;SDS011;27370;42.764;23.432;2022-07-17T02:43:24;9.55;;;5.13;;
41685;SDS011;27370;42.764;23.432;2022-07-17T02:45:50;8.48;;;4.85;;
41685;SDS011;27370;42.764;23.432;2022-07-17T02:48:15;8.40;;;4.70;;
41685;SDS011;27370;42.764;23.432;2022-07-17T02:50:41;7.20;;;4.40;;
41685;SDS011;27370;42.764;23.432;2022-07-17T02:53:07;7.53;;;4.47;;
41685;SDS011;27370;42.764;23.432;2022-07-17T02:55:32;9.63;;;4.60;;
41685;SDS011;27370;42.764;23.432;2022-07-17T02:57:58;8.77;;;4.72;;
41685;SDS011;27370;42.764;23.432;2022-07-17T03:00:24;8.35;;;4.85;;
41685;SDS011;27370;42.764;23.432;2022-07-17T03:02:49;7.85;;;4.65;;
41685;SDS011;27370;42.764;23.432;2022-07-17T03:05:15;9.40;;;5.00;;
41685;SDS011;27370;42.764;23.432;2022-07-17T03:07:42;7.72;;;4.38;;
41685;SDS011;27370;42.764;23.432;2022-07-17T03:10:09;7.88;;;4.57;;
41685;SDS011;27370;42.764;23.432;2022-07-17T03:12:35;7.88;;;4.68;;
41685;SDS011;27370;42.764;23.432;2022-07-17T03:15:01;7.80;;;4.50;;
41685;SDS011;27370;42.764;23.432;2022-07-17T03:17:27;10.48;;;4.78;;
41685;SDS011;27370;42.764;23.432;2022-07-17T03:19:53;7.35;;;4.35;;
41685;SDS011;27370;42.764;23.432;2022-07-17T03:22:18;9.38;;;4.45;;
41685;SDS011;27370;42.764;23.432;2022-07-17T03:24:44;11.15;;;4.55;;
41685;SDS011;27370;42.764;23.432;2022-07-17T03:27:09;9.93;;;4.97;;
41685;SDS011;27370;42.764;23.432;2022-07-17T03:29:35;7.30;;;4.00;;
41685;SDS011;27370;42.764;23.432;2022-07-17T03:32:00;7.03;;;4.05;;
41685;SDS011;27370;42.764;23.432;2022-07-17T03:34:26;7.88;;;4.55;;
41685;SDS011;27370;42.764;23.432;2022-07-17T03:36:51;7.45;;;4.30;;
41685;SDS011;27370;42.764;23.432;2022-07-17T03:39:17;8.68;;;4.10;;
41685;SDS011;27370;42.764;23.432;2022-07-17T03:41:43;6.95;;;4.00;;
41685;SDS011;27370;42.764;23.432;2022-07-17T03:44:08;6.53;;;4.00;;
41685;SDS011;27370;42.764;23.432;2022-07-17T03:46:34;8.30;;;4.32;;
41685;SDS011;27370;42.764;23.432;2022-07-17T03:49:00;9.35;;;4.22;;
41685;SDS011;27370;42.764;23.432;2022-07-17T03:51:25;8.50;;;4.38;;
41685;SDS011;27370;42.764;23.432;2022-07-17T03:53:51;8.50;;;4.90;;
41685;SDS011;27370;42.764;23.432;2022-07-17T03:56:17;8.27;;;4.78;;
41685;SDS011;27370;42.764;23.432;2022-07-17T03:58:42;8.90;;;4.88;;
41685;SDS011;27370;42.764;23.432;2022-07-17T04:01:08;10.13;;;5.35;;
41685;SDS011;27370;42.764;23.432;2022-07-17T04:03:34;10.55;;;5.07;;
41685;SDS011;27370;42.764;23.432;2022-07-17T04:05:59;12.23;;;5.50;;
41685;SDS011;27370;42.764;23.432;2022-07-17T04:08:25;8.32;;;4.60;;
41685;SDS011;27370;42.764;23.432;2022-07-17T04:10:50;8.85;;;4.85;;
41685;SDS011;27370;42.764;23.432;2022-07-17T04:13:16;7.88;;;4.10;;
41685;SDS011;27370;42.764;23.432;2022-07-17T04:15:41;9.43;;;4.38;;
41685;SDS011;27370;42.764;23.432;2022-07-17T04:18:28;7.72;;;4.10;;
41685;SDS011;27370;42.764;23.432;2022-07-17T04:21:02;6.43;;;3.72;;
41685;SDS011;27370;42.764;23.432;2022-07-17T04:23:29;8.32;;;4.07;;
41685;SDS011;27370;42.764;23.432;2022-07-17T04:25:55;7.40;;;3.90;;
41685;SDS011;27370;42.764;23.432;2022-07-17T04:28:21;10.68;;;3.90;;
41685;SDS011;27370;42.764;23.432;2022-07-17T04:30:46;12.68;;;4.65;;
41685;SDS011;27370;42.764;23.432;2022-07-17T04:33:12;7.78;;;4.10;;
41685;SDS011;27370;42.764;23.432;2022-07-17T04:35:38;10.13;;;4.68;;
41685;SDS011;27370;42.764;23.432;2022-07-17T04:38:05;6.93;;;4.03;;
41685;SDS011;27370;42.764;23.432;2022-07-17T04:40:31;9.45;;;4.47;;
41685;SDS011;27370;42.764;23.432;2022-07-17T04:42:57;10.50;;;4.50;;
41685;SDS011;27370;42.764;23.432;2022-07-17T04:45:23;15.25;;;4.40;;
41685;SDS011;27370;42.764;23.432;2022-07-17T04:47:49;9.75;;;4.60;;
41685;SDS011;27370;42.764;23.432;2022-07-17T04:50:14;8.45;;;4.78;;
41685;SDS011;27370;42.764;23.432;2022-07-17T04:52:40;10.13;;;4.75;;
41685;SDS011;27370;42.764;23.432;2022-07-17T04:55:06;9.25;;;4.03;;
41685;SDS011;27370;42.764;23.432;2022-07-17T04:57:32;9.25;;;4.10;;
41685;SDS011;27370;42.764;23.432;2022-07-17T04:59:57;7.07;;;4.10;;
41685;SDS011;27370;42.764;23.432;2022-07-17T05:02:23;9.18;;;4.28;;
41685;SDS011;27370;42.764;23.432;2022-07-17T05:04:49;9.13;;;3.70;;
41685;SDS011;27370;42.764;23.432;2022-07-17T05:07:15;8.50;;;3.95;;
41685;SDS011;27370;42.764;23.432;2022-07-17T05:09:40;7.82;;;3.90;;
41685;SDS011;27370;42.764;23.432;2022-07-17T05:12:06;8.27;;;4.05;;
41685;SDS011;27370;42.764;23.432;2022-07-17T05:14:32;8.52;;;3.65;;
41685;SDS011;27370;42.764;23.432;2022-07-17T05:16:58;7.78;;;4.03;;
41685;SDS011;27370;42.764;23.432;2022-07-17T05:19:23;8.15;;;3.55;;
41685;SDS011;27370;42.764;23.432;2022-07-17T05:21:49;8.75;;;3.35;;
41685;SDS011;27370;42.764;23.432;2022-07-17T05:24:15;9.15;;;3.38;;
41685;SDS011;27370;42.764;23.432;2022-07-17T05:26:41;6.60;;;3.53;;
41685;SDS011;27370;42.764;23.432;2022-07-17T05:29:06;10.35;;;3.35;;
41685;SDS011;27370;42.764;23.432;2022-07-17T05:31:32;9.20;;;3.08;;
41685;SDS011;27370;42.764;23.432;2022-07-17T05:33:58;9.88;;;3.42;;
41685;SDS011;27370;42.764;23.432;2022-07-17T05:36:23;10.15;;;3.30;;
41685;SDS011;27370;42.764;23.432;2022-07-17T05:38:49;6.47;;;3.30;;
41685;SDS011;27370;42.764;23.432;2022-07-17T05:41:14;8.52;;;3.30;;
41685;SDS011;27370;42.764;23.432;2022-07-17T05:43:40;6.00;;;3.22;;
41685;SDS011;27370;42.764;23.432;2022-07-17T05:46:05;7.38;;;3.17;;
41685;SDS011;27370;42.764;23.432;2022-07-17T05:48:31;5.10;;;3.13;;
41685;SDS011;27370;42.764;23.432;2022-07-17T05:50:57;6.72;;;3.20;;
41685;SDS011;27370;42.764;23.432;2022-07-17T05:53:23;6.70;;;2.90;;
41685;SDS011;27370;42.764;23.432;2022-07-17T05:55:49;6.60;;;2.72;;
41685;SDS011;27370;42.764;23.432;2022-07-17T05:58:14;3.92;;;2.45;;
41685;SDS011;27370;42.764;23.432;2022-07-17T06:00:40;4.90;;;2.70;;
41685;SDS011;27370;42.764;23.432;2022-07-17T06:03:06;6.00;;;2.80;;
41685;SDS011;27370;42.764;23.432;2022-07-17T06:05:31;4.47;;;2.70;;
41685;SDS011;27370;42.764;23.432;2022-07-17T06:07:57;5.05;;;2.90;;
41685;SDS011;27370;42.764;23.432;2022-07-17T06:10:23;6.65;;;2.65;;
41685;SDS011;27370;42.764;23.432;2022-07-17T06:12:50;4.03;;;2.22;;
41685;SDS011;27370;42.764;23.432;2022-07-17T06:15:17;6.07;;;2.58;;
41685;SDS011;27370;42.764;23.432;2022-07-17T06:17:46;7.05;;;2.60;;
41685;SDS011;27370;42.764;23.432;2022-07-17T06:20:13;7.35;;;2.42;;
41685;SDS011;27370;42.764;23.432;2022-07-17T06:22:39;9.90;;;2.50;;
41685;SDS011;27370;42.764;23.432;2022-07-17T06:25:06;8.10;;;2.45;;
41685;SDS011;27370;42.764;23.432;2022-07-17T06:27:32;6.40;;;2.60;;
41685;SDS011;27370;42.764;23.432;2022-07-17T06:29:57;6.35;;;2.63;;
41685;SDS011;27370;42.764;23.432;2022-07-17T06:32:23;4.25;;;2.50;;
41685;SDS011;27370;42.764;23.432;2022-07-17T06:34:48;4.15;;;2.42;;
41685;SDS011;27370;42.764;23.432;2022-07-17T06:37:14;6.68;;;2.63;;
41685;SDS011;27370;42.764;23.432;2022-07-17T06:39:39;6.65;;;2.38;;
41685;SDS011;27370;42.764;23.432;2022-07-17T06:42:05;4.10;;;2.40;;
41685;SDS011;27370;42.764;23.432;2022-07-17T06:44:31;5.68;;;2.60;;
41685;SDS011;27370;42.764;23.432;2022-07-17T06:46:56;7.32;;;2.40;;
41685;SDS011;27370;42.764;23.432;2022-07-17T06:49:22;5.20;;;2.80;;
41685;SDS011;27370;42.764;23.432;2022-07-17T06:51:47;5.53;;;2.53;;
41685;SDS011;27370;42.764;23.432;2022-07-17T06:54:13;4.05;;;2.50;;
41685;SDS011;27370;42.764;23.432;2022-07-17T06:56:40;4.57;;;2.60;;
41685;SDS011;27370;42.764;23.432;2022-07-17T06:59:06;5.55;;;2.72;;
41685;SDS011;27370;42.764;23.432;2022-07-17T07:01:35;5.70;;;2.40;;
41685;SDS011;27370;42.764;23.432;2022-07-17T07:04:02;5.43;;;2.40;;
41685;SDS011;27370;42.764;23.432;2022-07-17T07:06:28;6.22;;;2.35;;
41685;SDS011;27370;42.764;23.432;2022-07-17T07:08:54;7.07;;;2.45;;
41685;SDS011;27370;42.764;23.432;2022-07-17T07:11:20;7.70;;;2.40;;
41685;SDS011;27370;42.764;23.432;2022-07-17T07:13:46;6.15;;;2.40;;
41685;SDS011;27370;42.764;23.432;2022-07-17T07:16:11;4.38;;;2.17;;
41685;SDS011;27370;42.764;23.432;2022-07-17T07:18:37;6.93;;;2.03;;
41685;SDS011;27370;42.764;23.432;2022-07-17T07:21:02;3.83;;;2.10;;
41685;SDS011;27370;42.764;23.432;2022-07-17T07:23:28;6.78;;;2.40;;
41685;SDS011;27370;42.764;23.432;2022-07-17T07:25:54;6.10;;;2.60;;
41685;SDS011;27370;42.764;23.432;2022-07-17T07:28:19;4.75;;;2.50;;
41685;SDS011;27370;42.764;23.432;2022-07-17T07:30:45;5.32;;;2.38;;
41685;SDS011;27370;42.764;23.432;2022-07-17T07:33:10;7.88;;;2.40;;
41685;SDS011;27370;42.764;23.432;2022-07-17T07:35:36;6.00;;;2.45;;
41685;SDS011;27370;42.764;23.432;2022-07-17T07:38:01;9.00;;;2.20;;
41685;SDS011;27370;42.764;23.432;2022-07-17T07:40:28;3.92;;;2.10;;
41685;SDS011;27370;42.764;23.432;2022-07-17T07:42:54;7.43;;;2.30;;
41685;SDS011;27370;42.764;23.432;2022-07-17T07:45:19;3.88;;;2.17;;
41685;SDS011;27370;42.764;23.432;2022-07-17T07:47:46;4.07;;;2.13;;
41685;SDS011;27370;42.764;23.432;2022-07-17T07:50:13;4.53;;;2.50;;
41685;SDS011;27370;42.764;23.432;2022-07-17T07:52:39;4.70;;;2.05;;
41685;SDS011;27370;42.764;23.432;2022-07-17T07:55:05;4.80;;;2.40;;
41685;SDS011;27370;42.764;23.432;2022-07-17T07:57:33;4.30;;;2.10;;
41685;SDS011;27370;42.764;23.432;2022-07-17T07:59:59;5.93;;;2.50;;
41685;SDS011;27370;42.764;23.432;2022-07-17T08:02:24;5.05;;;1.80;;
41685;SDS011;27370;42.764;23.432;2022-07-17T08:04:50;6.88;;;2.20;;
41685;SDS011;27370;42.764;23.432;2022-07-17T08:07:16;4.35;;;2.30;;
41685;SDS011;27370;42.764;23.432;2022-07-17T08:09:41;4.60;;;2.20;;
41685;SDS011;27370;42.764;23.432;2022-07-17T08:12:07;5.85;;;1.95;;
41685;SDS011;27370;42.764;23.432;2022-07-17T08:14:32;10.85;;;2.40;;
41685;SDS011;27370;42.764;23.432;2022-07-17T08:16:58;5.28;;;2.20;;
41685;SDS011;27370;42.764;23.432;2022-07-17T08:19:23;7.68;;;2.22;;
41685;SDS011;27370;42.764;23.432;2022-07-17T08:21:49;4.65;;;2.30;;
41685;SDS011;27370;42.764;23.432;2022-07-17T08:24:14;5.55;;;2.50;;
41685;SDS011;27370;42.764;23.432;2022-07-17T08:26:41;3.00;;;2.00;;
41685;SDS011;27370;42.764;23.432;2022-07-17T08:29:07;6.97;;;2.58;;
41685;SDS011;27370;42.764;23.432;2022-07-17T08:31:32;4.70;;;2.25;;
41685;SDS011;27370;42.764;23.432;2022-07-17T08:33:58;7.15;;;2.40;;
41685;SDS011;27370;42.764;23.432;2022-07-17T08:36:23;3.58;;;2.20;;
41685;SDS011;27370;42.764;23.432;2022-07-17T08:38:49;7.70;;;2.40;;
41685;SDS011;27370;42.764;23.432;2022-07-17T08:41:15;5.18;;;2.20;;
41685;SDS011;27370;42.764;23.432;2022-07-17T08:43:42;6.75;;;2.17;;
41685;SDS011;27370;42.764;23.432;2022-07-17T08:46:11;5.05;;;2.38;;
41685;SDS011;27370;42.764;23.432;2022-07-17T08:48:42;5.63;;;2.40;;
41685;SDS011;27370;42.764;23.432;2022-07-17T08:51:09;5.10;;;2.00;;
41685;SDS011;27370;42.764;23.432;2022-07-17T08:53:36;5.25;;;2.13;;
41685;SDS011;27370;42.764;23.432;2022-07-17T08:56:02;6.80;;;2.08;;
41685;SDS011;27370;42.764;23.432;2022-07-17T08:58:28;4.75;;;2.00;;
41685;SDS011;27370;42.764;23.432;2022-07-17T09:00:54;7.70;;;2.47;;
41685;SDS011;27370;42.764;23.432;2022-07-17T09:03:20;6.40;;;2.10;;
41685;SDS011;27370;42.764;23.432;2022-07-17T09:05:48;4.27;;;2.20;;
41685;SDS011;27370;42.764;23.432;2022-07-17T09:08:22;5.85;;;2.50;;
41685;SDS011;27370;42.764;23.432;2022-07-17T09:10:50;4.43;;;2.05;;
41685;SDS011;27370;42.764;23.432;2022-07-17T09:15:45;5.68;;;2.20;;
41685;SDS011;27370;42.764;23.432;2022-07-17T09:18:12;6.05;;;2.20;;
41685;SDS011;27370;42.764;23.432;2022-07-17T09:20:45;3.80;;;2.05;;
41685;SDS011;27370;42.764;23.432;2022-07-17T09:23:16;5.90;;;2.30;;
41685;SDS011;27370;42.764;23.432;2022-07-17T09:25:44;5.80;;;2.35;;
41685;SDS011;27370;42.764;23.432;2022-07-17T09:28:11;13.15;;;3.30;;
41685;SDS011;27370;42.764;23.432;2022-07-17T09:30:43;4.97;;;2.33;;
41685;SDS011;27370;42.764;23.432;2022-07-17T09:33:28;5.83;;;2.43;;
41685;SDS011;27370;42.764;23.432;2022-07-17T09:35:56;3.22;;;2.10;;
41685;SDS011;27370;42.764;23.432;2022-07-17T09:38:32;5.47;;;2.53;;
41685;SDS011;27370;42.764;23.432;2022-07-17T09:41:12;6.18;;;2.85;;
41685;SDS011;27370;42.764;23.432;2022-07-17T09:43:48;4.80;;;2.60;;
41685;SDS011;27370;42.764;23.432;2022-07-17T09:46:40;7.68;;;2.35;;
41685;SDS011;27370;42.764;23.432;2022-07-17T09:49:06;4.28;;;2.17;;
41685;SDS011;27370;42.764;23.432;2022-07-17T09:56:32;3.70;;;2.10;;
41685;SDS011;27370;42.764;23.432;2022-07-17T09:59:05;5.15;;;2.10;;
41685;SDS011;27370;42.764;23.432;2022-07-17T10:01:32;4.10;;;2.10;;
41685;SDS011;27370;42.764;23.432;2022-07-17T10:03:58;6.32;;;2.45;;
41685;SDS011;27370;42.764;23.432;2022-07-17T10:06:25;3.63;;;2.28;;
41685;SDS011;27370;42.764;23.432;2022-07-17T10:08:52;4.72;;;2.60;;
41685;SDS011;27370;42.764;23.432;2022-07-17T10:11:19;4.10;;;2.10;;
41685;SDS011;27370;42.764;23.432;2022-07-17T10:13:52;3.50;;;2.00;;
41685;SDS011;27370;42.764;23.432;2022-07-17T10:16:31;4.47;;;2.00;;
41685;SDS011;27370;42.764;23.432;2022-07-17T10:21:26;4.47;;;1.90;;
41685;SDS011;27370;42.764;23.432;2022-07-17T10:26:38;3.72;;;2.03;;
41685;SDS011;27370;42.764;23.432;2022-07-17T10:29:24;3.47;;;2.13;;
41685;SDS011;27370;42.764;23.432;2022-07-17T10:31:53;4.60;;;2.05;;
41685;SDS011;27370;42.764;23.432;2022-07-17T10:34:21;4.30;;;2.10;;
41685;SDS011;27370;42.764;23.432;2022-07-17T10:37:13;5.85;;;2.22;;
41685;SDS011;27370;42.764;23.432;2022-07-17T10:48:18;3.00;;;2.10;;
41685;SDS011;27370;42.764;23.432;2022-07-17T10:55:55;3.00;;;1.85;;
41685;SDS011;27370;42.764;23.432;2022-07-17T10:58:32;3.60;;;1.83;;
41685;SDS011;27370;42.764;23.432;2022-07-17T11:03:49;3.80;;;2.15;;
41685;SDS011;27370;42.764;23.432;2022-07-17T11:06:16;5.28;;;2.13;;
41685;SDS011;27370;42.764;23.432;2022-07-17T11:08:50;4.03;;;2.13;;
41685;SDS011;27370;42.764;23.432;2022-07-17T11:11:35;4.00;;;1.93;;
41685;SDS011;27370;42.764;23.432;2022-07-17T11:16:38;2.47;;;1.90;;
41685;SDS011;27370;42.764;23.432;2022-07-17T11:19:10;2.60;;;1.80;;
41685;SDS011;27370;42.764;23.432;2022-07-17T11:21:48;4.55;;;2.03;;
41685;SDS011;27370;42.764;23.432;2022-07-17T11:24:14;2.35;;;1.73;;
41685;SDS011;27370;42.764;23.432;2022-07-17T11:26:41;3.97;;;2.15;;
41685;SDS011;27370;42.764;23.432;2022-07-17T11:29:07;5.20;;;2.30;;
41685;SDS011;27370;42.764;23.432;2022-07-17T11:31:32;3.67;;;2.20;;
41685;SDS011;27370;42.764;23.432;2022-07-17T11:34:02;6.15;;;2.00;;
41685;SDS011;27370;42.764;23.432;2022-07-17T11:36:34;8.70;;;2.35;;
41685;SDS011;27370;42.764;23.432;2022-07-17T11:39:05;5.43;;;2.28;;
41685;SDS011;27370;42.764;23.432;2022-07-17T11:41:39;4.63;;;2.20;;
41685;SDS011;27370;42.764;23.432;2022-07-17T11:44:10;3.97;;;1.98;;
41685;SDS011;27370;42.764;23.432;2022-07-17T11:46:38;3.47;;;1.98;;
41685;SDS011;27370;42.764;23.432;2022-07-17T11:49:05;7.53;;;2.22;;
41685;SDS011;27370;42.764;23.432;2022-07-17T11:51:32;6.20;;;2.20;;
41685;SDS011;27370;42.764;23.432;2022-07-17T11:54:15;3.67;;;2.08;;
41685;SDS011;27370;42.764;23.432;2022-07-17T11:56:42;4.28;;;2.17;;
41685;SDS011;27370;42.764;23.432;2022-07-17T11:59:22;3.30;;;1.90;;
41685;SDS011;27370;42.764;23.432;2022-07-17T12:01:49;3.60;;;2.28;;
41685;SDS011;27370;42.764;23.432;2022-07-17T12:04:15;3.25;;;2.15;;
41685;SDS011;27370;42.764;23.432;2022-07-17T12:06:41;4.30;;;2.10;;
41685;SDS011;27370;42.764;23.432;2022-07-17T12:09:07;3.83;;;2.08;;
41685;SDS011;27370;42.764;23.432;2022-07-17T12:11:33;3.05;;;2.08;;
41685;SDS011;27370;42.764;23.432;2022-07-17T12:14:10;2.97;;;1.95;;
41685;SDS011;27370;42.764;23.432;2022-07-17T12:16:36;4.82;;;2.08;;
41685;SDS011;27370;42.764;23.432;2022-07-17T12:19:06;3.33;;;2.20;;
41685;SDS011;27370;42.764;23.432;2022-07-17T12:21:46;5.88;;;2.20;;
41685;SDS011;27370;42.764;23.432;2022-07-17T12:26:58;4.65;;;2.35;;
41685;SDS011;27370;42.764;23.432;2022-07-17T12:29:25;3.00;;;2.00;;
41685;SDS011;27370;42.764;23.432;2022-07-17T12:34:26;3.53;;;2.10;;
41685;SDS011;27370;42.764;23.432;2022-07-17T12:36:52;5.10;;;2.40;;
41685;SDS011;27370;42.764;23.432;2022-07-17T12:39:17;3.55;;;2.05;;
41685;SDS011;27370;42.764;23.432;2022-07-17T12:41:44;4.72;;;2.10;;
41685;SDS011;27370;42.764;23.432;2022-07-17T12:44:10;8.38;;;2.40;;
41685;SDS011;27370;42.764;23.432;2022-07-17T12:46:35;4.45;;;2.30;;
41685;SDS011;27370;42.764;23.432;2022-07-17T12:49:01;3.75;;;2.30;;
41685;SDS011;27370;42.764;23.432;2022-07-17T12:51:27;4.72;;;2.67;;
41685;SDS011;27370;42.764;23.432;2022-07-17T12:53:52;5.20;;;2.42;;
41685;SDS011;27370;42.764;23.432;2022-07-17T12:56:18;5.53;;;2.20;;
41685;SDS011;27370;42.764;23.432;2022-07-17T12:58:43;4.63;;;2.20;;
41685;SDS011;27370;42.764;23.432;2022-07-17T13:01:09;3.50;;;2.05;;
41685;SDS011;27370;42.764;23.432;2022-07-17T13:03:36;4.43;;;2.00;;
41685;SDS011;27370;42.764;23.432;2022-07-17T13:06:02;3.15;;;2.00;;
41685;SDS011;27370;42.764;23.432;2022-07-17T13:08:28;4.95;;;2.33;;
41685;SDS011;27370;42.764;23.432;2022-07-17T13:10:55;4.57;;;2.05;;
41685;SDS011;27370;42.764;23.432;2022-07-17T13:13:21;4.05;;;2.40;;
41685;SDS011;27370;42.764;23.432;2022-07-17T13:15:46;3.67;;;2.38;;
41685;SDS011;27370;42.764;23.432;2022-07-17T13:18:12;4.55;;;2.03;;
41685;SDS011;27370;42.764;23.432;2022-07-17T13:20:39;4.55;;;2.30;;
41685;SDS011;27370;42.764;23.432;2022-07-17T13:23:05;3.92;;;2.35;;
41685;SDS011;27370;42.764;23.432;2022-07-17T13:25:31;4.65;;;2.15;;
41685;SDS011;27370;42.764;23.432;2022-07-17T13:27:57;4.88;;;2.50;;
41685;SDS011;27370;42.764;23.432;2022-07-17T13:30:23;3.15;;;2.08;;
41685;SDS011;27370;42.764;23.432;2022-07-17T13:32:49;4.32;;;2.40;;
41685;SDS011;27370;42.764;23.432;2022-07-17T13:35:14;4.03;;;2.35;;
41685;SDS011;27370;42.764;23.432;2022-07-17T13:37:43;3.05;;;2.00;;
41685;SDS011;27370;42.764;23.432;2022-07-17T13:40:09;4.07;;;2.30;;
41685;SDS011;27370;42.764;23.432;2022-07-17T13:42:35;4.78;;;2.33;;
41685;SDS011;27370;42.764;23.432;2022-07-17T13:45:01;7.28;;;2.50;;
41685;SDS011;27370;42.764;23.432;2022-07-17T13:47:27;5.93;;;2.70;;
41685;SDS011;27370;42.764;23.432;2022-07-17T13:49:54;5.53;;;2.15;;
41685;SDS011;27370;42.764;23.432;2022-07-17T13:52:20;5.18;;;2.20;;
41685;SDS011;27370;42.764;23.432;2022-07-17T13:54:46;3.83;;;2.20;;
41685;SDS011;27370;42.764;23.432;2022-07-17T13:57:11;3.80;;;2.20;;
41685;SDS011;27370;42.764;23.432;2022-07-17T13:59:37;8.30;;;2.88;;
41685;SDS011;27370;42.764;23.432;2022-07-17T14:02:02;4.50;;;2.17;;
41685;SDS011;27370;42.764;23.432;2022-07-17T14:04:28;4.38;;;2.20;;
41685;SDS011;27370;42.764;23.432;2022-07-17T14:06:53;4.28;;;2.47;;
41685;SDS011;27370;42.764;23.432;2022-07-17T14:09:19;5.32;;;2.30;;
41685;SDS011;27370;42.764;23.432;2022-07-17T14:11:44;4.35;;;2.38;;
41685;SDS011;27370;42.764;23.432;2022-07-17T14:14:10;3.20;;;2.40;;
41685;SDS011;27370;42.764;23.432;2022-07-17T14:16:35;4.20;;;2.40;;
41685;SDS011;27370;42.764;23.432;2022-07-17T14:19:01;3.97;;;2.25;;
41685;SDS011;27370;42.764;23.432;2022-07-17T14:21:34;3.30;;;2.28;;
41685;SDS011;27370;42.764;23.432;2022-07-17T14:24:01;4.65;;;2.40;;
41685;SDS011;27370;42.764;23.432;2022-07-17T14:26:28;3.75;;;2.47;;
41685;SDS011;27370;42.764;23.432;2022-07-17T14:28:53;4.50;;;2.42;;
41685;SDS011;27370;42.764;23.432;2022-07-17T14:31:19;3.15;;;2.05;;
41685;SDS011;27370;42.764;23.432;2022-07-17T14:33:44;4.93;;;2.60;;
41685;SDS011;27370;42.764;23.432;2022-07-17T14:36:11;3.72;;;2.30;;
41685;SDS011;27370;42.764;23.432;2022-07-17T14:38:37;4.85;;;2.28;;
41685;SDS011;27370;42.764;23.432;2022-07-17T14:41:02;5.15;;;2.13;;
41685;SDS011;27370;42.764;23.432;2022-07-17T14:43:29;3.13;;;2.30;;
41685;SDS011;27370;42.764;23.432;2022-07-17T14:45:55;14.82;;;2.60;;
41685;SDS011;27370;42.764;23.432;2022-07-17T14:48:20;6.20;;;2.13;;
41685;SDS011;27370;42.764;23.432;2022-07-17T14:50:46;4.63;;;2.45;;
41685;SDS011;27370;42.764;23.432;2022-07-17T14:53:12;4.68;;;2.55;;
41685;SDS011;27370;42.764;23.432;2022-07-17T14:55:38;3.03;;;2.10;;
41685;SDS011;27370;42.764;23.432;2022-07-17T14:58:03;5.47;;;2.30;;
41685;SDS011;27370;42.764;23.432;2022-07-17T15:00:29;3.35;;;2.40;;
41685;SDS011;27370;42.764;23.432;2022-07-17T15:02:54;4.95;;;2.25;;
41685;SDS011;27370;42.764;23.432;2022-07-17T15:05:20;5.43;;;2.28;;
41685;SDS011;27370;42.764;23.432;2022-07-17T15:07:46;5.80;;;2.53;;
41685;SDS011;27370;42.764;23.432;2022-07-17T15:10:11;3.72;;;2.10;;
41685;SDS011;27370;42.764;23.432;2022-07-17T15:12:37;3.70;;;2.22;;